Time;durP1;ratioP1;P1;durP2;ratioP2;P2;SDS_P1;SDS_P2;PMS_P1;PMS_P2;Temp;Humidity;BMP_temperature;BMP_pressure;BME280_temperature;BME280_humidity;BME280_pressure;Samples;Min_cycle;Max_cycle;Signal;HPM_P1;HPM_P2
2023/07/01 00:02:15;;;;;;;6.68;2.78;;;;;;;;;;5054355;28;20059;-60
2023/07/01 00:04:42;;;;;;;8.85;3.20;;;;;;;;;;5053999;28;20057;-61
2023/07/01 00:07:08;;;;;;;8.63;3.13;;;;;;;;;;5054379;28;20457;-61
2023/07/01 00:09:35;;;;;;;7.95;3.50;;;;;;;;;;5054532;28;20041;-61
2023/07/01 00:12:02;;;;;;;8.68;3.30;;;;;;;;;;5054138;28;20053;-60
2023/07/01 00:14:28;;;;;;;9.57;3.67;;;;;;;;;;5054069;28;20053;-61
2023/07/01 00:16:54;;;;;;;9.15;3.28;;;;;;;;;;5054525;28;20345;-61
2023/07/01 00:19:21;;;;;;;10.93;3.92;;;;;;;;;;5054129;28;20053;-60
2023/07/01 00:21:47;;;;;;;14.13;4.32;;;;;;;;;;5053990;28;20107;-60
2023/07/01 00:24:14;;;;;;;16.98;4.65;;;;;;;;;;5054027;28;20400;-60
2023/07/01 00:26:40;;;;;;;13.57;4.90;;;;;;;;;;5053804;28;20048;-61
2023/07/01 00:29:07;;;;;;;13.07;4.72;;;;;;;;;;5053885;28;20550;-61
2023/07/01 00:31:33;;;;;;;18.45;5.03;;;;;;;;;;5054066;28;20041;-61
2023/07/01 00:34:00;;;;;;;14.57;5.23;;;;;;;;;;5053848;28;20041;-60
2023/07/01 00:36:27;;;;;;;14.02;5.18;;;;;;;;;;5053878;28;20053;-60
2023/07/01 00:38:53;;;;;;;15.27;4.90;;;;;;;;;;5053630;28;20060;-61
2023/07/01 00:41:20;;;;;;;14.43;4.50;;;;;;;;;;5053738;28;20045;-60
2023/07/01 00:43:47;;;;;;;17.50;4.90;;;;;;;;;;5053786;28;20102;-61
2023/07/01 00:46:16;;;;;;;18.63;5.10;;;;;;;;;;5053476;28;20496;-60
2023/07/01 00:48:43;;;;;;;16.70;5.15;;;;;;;;;;5053605;28;20087;-61
2023/07/01 00:51:09;;;;;;;15.20;4.73;;;;;;;;;;5053483;28;20052;-60
2023/07/01 00:53:36;;;;;;;15.98;5.15;;;;;;;;;;5053651;28;20128;-60
2023/07/01 00:56:03;;;;;;;16.85;4.20;;;;;;;;;;5053529;28;20045;-61
2023/07/01 00:58:29;;;;;;;11.70;4.25;;;;;;;;;;5053304;28;20473;-61
2023/07/01 01:00:57;;;;;;;16.80;4.10;;;;;;;;;;5053327;28;20059;-60
2023/07/01 01:03:32;;;;;;;12.88;4.18;;;;;;;;;;5031413;28;20455;-60
2023/07/01 01:06:04;;;;;;;14.10;4.25;;;;;;;;;;5044721;28;20053;-61
2023/07/01 01:08:43;;;;;;;12.20;4.00;;;;;;;;;;5052146;28;20048;-60
2023/07/01 01:11:11;;;;;;;15.48;4.30;;;;;;;;;;5053153;28;20053;-60
2023/07/01 01:13:38;;;;;;;11.00;4.00;;;;;;;;;;5053227;28;20044;-60
2023/07/01 01:16:05;;;;;;;12.87;4.60;;;;;;;;;;5053228;28;20053;-60
2023/07/01 01:18:32;;;;;;;17.23;4.30;;;;;;;;;;5053210;28;20057;-60
2023/07/01 01:20:59;;;;;;;11.40;4.15;;;;;;;;;;5052708;28;20055;-61
2023/07/01 01:23:34;;;;;;;12.20;4.10;;;;;;;;;;5052963;28;20052;-60
2023/07/01 01:26:09;;;;;;;12.60;4.95;;;;;;;;;;5053030;28;20664;-60
2023/07/01 01:28:36;;;;;;;13.77;4.50;;;;;;;;;;5052828;28;20060;-60
2023/07/01 01:31:03;;;;;;;13.57;4.22;;;;;;;;;;5052523;28;20060;-60
2023/07/01 01:33:29;;;;;;;15.73;4.47;;;;;;;;;;5052449;28;20107;-60
2023/07/01 01:36:00;;;;;;;13.07;4.43;;;;;;;;;;5052445;28;20791;-60
2023/07/01 01:38:30;;;;;;;16.35;4.72;;;;;;;;;;5052607;28;20127;-60
2023/07/01 01:41:02;;;;;;;13.13;5.03;;;;;;;;;;5052294;28;20055;-61
2023/07/01 01:43:47;;;;;;;17.63;5.72;;;;;;;;;;5052379;28;20056;-60
2023/07/01 01:46:15;;;;;;;13.57;4.90;;;;;;;;;;5052330;28;20496;-60
2023/07/01 01:48:41;;;;;;;;;;;;;;;;;;5053196;28;20045;-61
2023/07/01 01:51:08;;;;;;;14.25;5.38;;;;;;;;;;5052311;28;19932;-60
2023/07/01 01:53:36;;;;;;;18.33;4.70;;;;;;;;;;5051322;28;20382;-61
2023/07/01 01:56:03;;;;;;;17.25;5.13;;;;;;;;;;5052036;28;20049;-61
2023/07/01 01:58:29;;;;;;;18.05;5.05;;;;;;;;;;5052293;28;20405;-61
2023/07/01 02:00:56;;;;;;;16.60;5.07;;;;;;;;;;5051567;28;20057;-60
2023/07/01 02:03:22;;;;;;;14.05;4.60;;;;;;;;;;5045461;28;20421;-60
2023/07/01 02:05:49;;;;;;;11.63;4.37;;;;;;;;;;5051652;28;20087;-60
2023/07/01 02:08:15;;;;;;;12.98;4.05;;;;;;;;;;5051750;28;20072;-60
2023/07/01 02:10:42;;;;;;;10.52;3.63;;;;;;;;;;5051826;28;20102;-60
2023/07/01 02:13:09;;;;;;;12.30;3.65;;;;;;;;;;5051995;28;20077;-60
2023/07/01 02:15:35;;;;;;;9.38;3.50;;;;;;;;;;5052057;28;20060;-60
2023/07/01 02:18:03;;;;;;;13.98;3.65;;;;;;;;;;5051847;28;20053;-60
2023/07/01 02:20:30;;;;;;;8.70;3.05;;;;;;;;;;5051819;28;20045;-61
2023/07/01 02:22:57;;;;;;;15.03;3.47;;;;;;;;;;5051807;28;20056;-60
2023/07/01 02:25:23;;;;;;;10.02;2.95;;;;;;;;;;5051354;28;20052;-60
2023/07/01 02:27:50;;;;;;;12.47;3.20;;;;;;;;;;5051814;28;20102;-61
2023/07/01 02:30:16;;;;;;;9.05;3.30;;;;;;;;;;5051495;28;20111;-61
2023/07/01 02:32:43;;;;;;;10.65;3.28;;;;;;;;;;5048901;28;20063;-60
2023/07/01 02:35:09;;;;;;;11.65;2.88;;;;;;;;;;5038766;28;20509;-60
2023/07/01 02:37:36;;;;;;;9.60;3.17;;;;;;;;;;5049390;28;20056;-60
2023/07/01 02:40:04;;;;;;;12.57;3.13;;;;;;;;;;5051390;28;20430;-60
2023/07/01 02:42:31;;;;;;;7.32;2.95;;;;;;;;;;5051320;28;20081;-60
2023/07/01 02:44:58;;;;;;;12.52;3.50;;;;;;;;;;5050233;28;20057;-61
2023/07/01 02:47:24;;;;;;;13.45;3.03;;;;;;;;;;5051385;28;20384;-60
2023/07/01 02:49:51;;;;;;;9.10;2.75;;;;;;;;;;5051037;28;20053;-61
2023/07/01 02:52:17;;;;;;;10.68;2.58;;;;;;;;;;5051207;28;20052;-61
2023/07/01 02:54:44;;;;;;;11.27;2.70;;;;;;;;;;5051443;28;20410;-60
2023/07/01 02:57:10;;;;;;;9.43;2.90;;;;;;;;;;5051483;28;20045;-60
2023/07/01 02:59:37;;;;;;;9.75;2.60;;;;;;;;;;5051583;28;20440;-61
2023/07/01 03:02:04;;;;;;;6.97;2.38;;;;;;;;;;5051380;28;20056;-60
2023/07/01 03:04:31;;;;;;;8.77;2.65;;;;;;;;;;5051667;28;20053;-60
2023/07/01 03:06:57;;;;;;;7.13;2.37;;;;;;;;;;5051378;28;20057;-60
2023/07/01 03:09:24;;;;;;;9.02;2.35;;;;;;;;;;5051288;28;20053;-60
2023/07/01 03:11:52;;;;;;;10.18;2.53;;;;;;;;;;5051019;28;20052;-61
2023/07/01 03:14:18;;;;;;;7.93;2.60;;;;;;;;;;5054825;28;20126;-60
2023/07/01 03:16:46;;;;;;;8.02;2.80;;;;;;;;;;5055430;28;20053;-61
2023/07/01 03:19:12;;;;;;;6.78;3.05;;;;;;;;;;5055160;28;20049;-60
2023/07/01 03:21:40;;;;;;;9.55;3.55;;;;;;;;;;5054918;28;20496;-60
2023/07/01 03:24:07;;;;;;;9.90;3.90;;;;;;;;;;5055683;28;20052;-61
2023/07/01 03:26:34;;;;;;;8.17;3.30;;;;;;;;;;5055088;28;20056;-60
2023/07/01 03:29:00;;;;;;;8.45;3.80;;;;;;;;;;5054982;28;20451;-61
2023/07/01 03:31:27;;;;;;;7.60;3.97;;;;;;;;;;5055125;28;20075;-61
2023/07/01 03:33:54;;;;;;;4.93;3.50;;;;;;;;;;5054777;28;20049;-60
2023/07/01 03:36:20;;;;;;;7.30;3.83;;;;;;;;;;5054773;28;20516;-61
2023/07/01 03:38:47;;;;;;;9.85;4.22;;;;;;;;;;5054922;28;20087;-60
2023/07/01 03:41:14;;;;;;;7.82;4.10;;;;;;;;;;5054714;28;20064;-60
2023/07/01 03:43:40;;;;;;;10.23;3.80;;;;;;;;;;5054859;28;20064;-61
2023/07/01 03:46:07;;;;;;;10.52;4.45;;;;;;;;;;5054661;28;20083;-61
2023/07/01 03:48:34;;;;;;;7.70;3.95;;;;;;;;;;5054858;28;20045;-60
2023/07/01 03:51:01;;;;;;;9.05;4.43;;;;;;;;;;5054459;28;20049;-61
2023/07/01 03:53:27;;;;;;;7.45;3.85;;;;;;;;;;5054567;28;20503;-61
2023/07/01 03:55:54;;;;;;;7.88;3.53;;;;;;;;;;5054419;28;20049;-61
2023/07/01 03:58:24;;;;;;;8.48;3.67;;;;;;;;;;5054840;28;20053;-60
2023/07/01 04:00:51;;;;;;;8.65;3.80;;;;;;;;;;5054884;28;20048;-61
2023/07/01 04:03:17;;;;;;;8.80;4.22;;;;;;;;;;5054292;28;20094;-61
2023/07/01 04:05:44;;;;;;;8.45;4.43;;;;;;;;;;5054452;28;20049;-61
2023/07/01 04:08:10;;;;;;;6.05;4.32;;;;;;;;;;5054171;28;20451;-60
2023/07/01 04:10:37;;;;;;;9.07;4.25;;;;;;;;;;5054421;28;20052;-60
2023/07/01 04:13:04;;;;;;;8.20;4.57;;;;;;;;;;5054211;28;20048;-60
2023/07/01 04:15:31;;;;;;;9.23;4.88;;;;;;;;;;5054183;28;20220;-60
2023/07/01 04:17:57;;;;;;;10.32;4.93;;;;;;;;;;5054340;28;20057;-60
2023/07/01 04:20:23;;;;;;;6.43;4.50;;;;;;;;;;5053969;28;20045;-61
2023/07/01 04:22:50;;;;;;;9.18;4.70;;;;;;;;;;5054084;28;20055;-61
2023/07/01 04:25:16;;;;;;;8.00;4.65;;;;;;;;;;5053211;28;20060;-60
2023/07/01 04:27:43;;;;;;;8.35;4.68;;;;;;;;;;5045097;28;20057;-61
2023/07/01 04:30:11;;;;;;;8.20;4.70;;;;;;;;;;5049130;28;20087;-60
2023/07/01 04:32:38;;;;;;;8.68;4.10;;;;;;;;;;5053978;28;20053;-60
2023/07/01 04:35:05;;;;;;;8.57;3.97;;;;;;;;;;5053697;28;20436;-60
2023/07/01 04:37:31;;;;;;;15.70;4.40;;;;;;;;;;5053928;28;20045;-60
2023/07/01 04:39:58;;;;;;;7.90;4.28;;;;;;;;;;5053575;28;20107;-61
2023/07/01 04:42:24;;;;;;;9.63;3.95;;;;;;;;;;5053545;28;20052;-60
2023/07/01 04:44:54;;;;;;;7.57;3.85;;;;;;;;;;5053418;28;20421;-60
2023/07/01 04:47:23;;;;;;;6.88;3.33;;;;;;;;;;5053805;28;20181;-61
2023/07/01 04:49:52;;;;;;;10.52;3.15;;;;;;;;;;5053673;28;20077;-61
2023/07/01 04:52:22;;;;;;;5.55;2.80;;;;;;;;;;5053435;28;20052;-61
2023/07/01 04:54:49;;;;;;;5.72;2.58;;;;;;;;;;5053824;28;20052;-60
2023/07/01 04:57:15;;;;;;;5.38;2.47;;;;;;;;;;5053356;28;20064;-60
2023/07/01 04:59:42;;;;;;;5.97;2.45;;;;;;;;;;5053560;28;20060;-60
2023/07/01 05:02:08;;;;;;;7.63;2.17;;;;;;;;;;5053512;28;20079;-61
2023/07/01 05:04:36;;;;;;;3.97;1.98;;;;;;;;;;5053158;28;20734;-60
2023/07/01 05:07:03;;;;;;;6.15;2.42;;;;;;;;;;5053474;28;20063;-60
2023/07/01 05:09:29;;;;;;;4.43;1.80;;;;;;;;;;5051756;28;20504;-60
2023/07/01 05:11:56;;;;;;;4.80;2.00;;;;;;;;;;5052906;28;20282;-61
2023/07/01 05:14:22;;;;;;;5.28;1.85;;;;;;;;;;5053069;28;20052;-61
2023/07/01 05:16:49;;;;;;;5.75;1.92;;;;;;;;;;5053172;28;20041;-60
2023/07/01 05:19:15;;;;;;;4.55;1.70;;;;;;;;;;5053266;28;20058;-60
2023/07/01 05:21:52;;;;;;;5.68;1.83;;;;;;;;;;5053189;28;20064;-60
2023/07/01 05:24:18;;;;;;;2.65;1.40;;;;;;;;;;5052976;28;20076;-61
2023/07/01 05:26:48;;;;;;;4.20;1.50;;;;;;;;;;5052970;28;20041;-60
2023/07/01 05:29:15;;;;;;;4.25;1.55;;;;;;;;;;5052761;28;20489;-60
2023/07/01 05:31:42;;;;;;;4.63;1.55;;;;;;;;;;5053036;28;20081;-61
2023/07/01 05:34:08;;;;;;;2.80;1.40;;;;;;;;;;5053013;28;20041;-61
2023/07/01 05:36:36;;;;;;;3.55;1.35;;;;;;;;;;5051897;28;20053;-60
2023/07/01 05:39:03;;;;;;;2.55;1.15;;;;;;;;;;5052463;28;20532;-60
2023/07/01 05:41:30;;;;;;;2.65;1.10;;;;;;;;;;5052736;28;20053;-60
2023/07/01 05:43:56;;;;;;;3.90;1.33;;;;;;;;;;5052753;28;20053;-60
2023/07/01 05:46:23;;;;;;;5.10;1.25;;;;;;;;;;5052365;28;20102;-61
2023/07/01 05:48:49;;;;;;;4.07;1.27;;;;;;;;;;5052691;28;20055;-61
2023/07/01 05:51:16;;;;;;;3.72;1.30;;;;;;;;;;5052593;28;20052;-60
2023/07/01 05:53:44;;;;;;;4.00;1.15;;;;;;;;;;5052278;28;20060;-60
2023/07/01 05:56:11;;;;;;;3.45;1.55;;;;;;;;;;5052454;28;20048;-60
2023/07/01 05:58:37;;;;;;;3.47;1.35;;;;;;;;;;5052229;28;20136;-61
2023/07/01 06:01:03;;;;;;;4.85;1.60;;;;;;;;;;5052413;28;20106;-60
2023/07/01 06:03:30;;;;;;;2.78;1.58;;;;;;;;;;5052183;28;20053;-60
2023/07/01 06:05:57;;;;;;;3.37;1.47;;;;;;;;;;5052082;28;20079;-60
2023/07/01 06:08:23;;;;;;;5.22;1.63;;;;;;;;;;5052123;28;20044;-61
2023/07/01 06:10:49;;;;;;;3.25;1.30;;;;;;;;;;5052217;28;20045;-60
2023/07/01 06:13:16;;;;;;;3.85;1.38;;;;;;;;;;5051981;28;20059;-61
2023/07/01 06:15:42;;;;;;;2.97;1.50;;;;;;;;;;5051942;28;20091;-61
2023/07/01 06:18:09;;;;;;;4.18;1.30;;;;;;;;;;5052035;28;20049;-61
2023/07/01 06:20:35;;;;;;;3.90;1.30;;;;;;;;;;5051846;28;20049;-60
2023/07/01 06:23:02;;;;;;;4.38;1.40;;;;;;;;;;5052137;28;20068;-60
2023/07/01 06:25:28;;;;;;;1.50;1.00;;;;;;;;;;5052060;28;20055;-61
2023/07/01 06:27:54;;;;;;;3.47;0.98;;;;;;;;;;5052004;28;20045;-61
2023/07/01 06:30:21;;;;;;;3.38;1.10;;;;;;;;;;5051917;28;20072;-60
2023/07/01 06:32:47;;;;;;;3.15;1.20;;;;;;;;;;5051894;28;20447;-60
2023/07/01 06:35:14;;;;;;;3.27;1.00;;;;;;;;;;5051801;28;20041;-61
2023/07/01 06:37:40;;;;;;;3.33;1.15;;;;;;;;;;5051817;28;20111;-60
2023/07/01 06:40:07;;;;;;;2.47;1.17;;;;;;;;;;5051771;28;20053;-61
2023/07/01 06:42:35;;;;;;;2.80;1.20;;;;;;;;;;5051683;28;20048;-60
2023/07/01 06:45:01;;;;;;;;;;;;;;;;;;5051967;28;20152;-60
2023/07/01 06:47:27;;;;;;;3.33;1.30;;;;;;;;;;5051177;28;19924;-61
2023/07/01 06:49:54;;;;;;;3.58;1.50;;;;;;;;;;5051454;28;20045;-60
2023/07/01 06:52:21;;;;;;;5.15;1.60;;;;;;;;;;5051641;28;20451;-60
2023/07/01 06:54:47;;;;;;;1.83;1.33;;;;;;;;;;5051427;28;20488;-61
2023/07/01 06:57:14;;;;;;;4.85;1.35;;;;;;;;;;5051662;28;20102;-60
2023/07/01 06:59:40;;;;;;;3.13;1.33;;;;;;;;;;5051583;28;20777;-60
2023/07/01 07:02:07;;;;;;;3.92;1.30;;;;;;;;;;5051403;28;20057;-60
2023/07/01 07:04:33;;;;;;;5.97;1.40;;;;;;;;;;5051278;28;20049;-60
2023/07/01 07:07:00;;;;;;;3.92;1.25;;;;;;;;;;5051227;28;20781;-61
2023/07/01 07:09:26;;;;;;;4.65;1.20;;;;;;;;;;5051072;28;20059;-61
2023/07/01 07:11:54;;;;;;;4.13;0.95;;;;;;;;;;5051388;28;20094;-60
2023/07/01 07:14:22;;;;;;;4.00;1.00;;;;;;;;;;5051298;28;20085;-61
2023/07/01 07:16:48;;;;;;;5.43;0.80;;;;;;;;;;5051441;28;20048;-60
2023/07/01 07:19:15;;;;;;;3.40;0.73;;;;;;;;;;5051192;28;20052;-61
2023/07/01 07:21:41;;;;;;;1.98;0.95;;;;;;;;;;5051410;28;20053;-59
2023/07/01 07:24:08;;;;;;;2.75;0.70;;;;;;;;;;5051060;28;20098;-60
2023/07/01 07:26:36;;;;;;;2.05;0.73;;;;;;;;;;5039237;28;20053;-61
2023/07/01 07:29:03;;;;;;;3.03;0.80;;;;;;;;;;5049378;28;20406;-60
2023/07/01 07:31:29;;;;;;;1.20;0.60;;;;;;;;;;5051112;28;20455;-60
2023/07/01 07:33:56;;;;;;;2.80;1.08;;;;;;;;;;5051271;28;20044;-60
2023/07/01 07:36:22;;;;;;;3.88;1.20;;;;;;;;;;5051238;28;20049;-60
2023/07/01 07:38:49;;;;;;;2.90;1.10;;;;;;;;;;5051293;28;20071;-60
2023/07/01 07:41:16;;;;;;;2.70;1.40;;;;;;;;;;5036730;28;20041;-61
2023/07/01 07:43:42;;;;;;;;;;;;;;;;;;5031209;28;20103;-62
2023/07/01 07:46:09;;;;;;;3.95;1.98;;;;;;;;;;5042656;28;19970;-62
2023/07/01 07:48:35;;;;;;;5.32;1.95;;;;;;;;;;5050640;28;20107;-62
2023/07/01 07:51:02;;;;;;;5.68;2.45;;;;;;;;;;5039910;28;20049;-62
2023/07/01 07:53:28;;;;;;;4.15;2.05;;;;;;;;;;5041447;28;20041;-62
2023/07/01 07:55:55;;;;;;;2.90;2.20;;;;;;;;;;5030915;28;20112;-61
2023/07/01 07:58:21;;;;;;;4.40;2.60;;;;;;;;;;5030616;28;20045;-61
2023/07/01 08:00:51;;;;;;;4.10;2.97;;;;;;;;;;5033091;28;20137;-60
2023/07/01 08:03:17;;;;;;;3.93;2.57;;;;;;;;;;5033878;28;20497;-62
2023/07/01 08:05:44;;;;;;;4.40;2.58;;;;;;;;;;5034111;28;20053;-61
2023/07/01 08:08:11;;;;;;;5.00;2.50;;;;;;;;;;5032651;28;20053;-61
2023/07/01 08:10:43;;;;;;;4.97;2.80;;;;;;;;;;5031842;28;20052;-61
2023/07/01 08:13:12;;;;;;;5.25;2.95;;;;;;;;;;5049238;28;20079;-61
2023/07/01 08:15:38;;;;;;;;;;;;;;;;;;5043438;28;20056;-62
2023/07/01 08:18:04;;;;;;;5.00;3.20;;;;;;;;;;5036151;28;19924;-62
2023/07/01 08:20:31;;;;;;;5.00;3.15;;;;;;;;;;5045376;28;20055;-61
2023/07/01 08:22:57;;;;;;;4.97;3.20;;;;;;;;;;5049940;28;20053;-61
2023/07/01 08:25:24;;;;;;;4.55;3.20;;;;;;;;;;5046801;28;20052;-60
2023/07/01 08:27:50;;;;;;;5.90;2.83;;;;;;;;;;5033410;28;20395;-60
2023/07/01 08:30:17;;;;;;;4.40;2.65;;;;;;;;;;5033706;28;20064;-60
2023/07/01 08:32:43;;;;;;;5.93;2.88;;;;;;;;;;5043033;28;20049;-60
2023/07/01 08:35:10;;;;;;;5.00;3.10;;;;;;;;;;5034584;28;20049;-60
2023/07/01 08:37:36;;;;;;;5.25;3.10;;;;;;;;;;5053198;28;20064;-60
2023/07/01 08:40:03;;;;;;;4.10;3.15;;;;;;;;;;5035130;28;20049;-63
2023/07/01 08:42:49;;;;;;;5.60;3.20;;;;;;;;;;5044674;28;20052;-62
2023/07/01 08:45:16;;;;;;;5.30;3.37;;;;;;;;;;5033273;28;20789;-62
2023/07/01 08:47:43;;;;;;;6.22;3.45;;;;;;;;;;5036536;28;20045;-61
2023/07/01 08:50:09;;;;;;;5.85;3.20;;;;;;;;;;5038604;28;20044;-61
2023/07/01 08:52:39;;;;;;;6.55;3.85;;;;;;;;;;5045712;28;20045;-62
2023/07/01 08:55:05;;;;;;;6.18;3.78;;;;;;;;;;5032714;28;20042;-62
2023/07/01 08:57:32;;;;;;;5.80;3.78;;;;;;;;;;5033020;28;20072;-62
2023/07/01 08:59:59;;;;;;;8.20;4.00;;;;;;;;;;5032804;28;20448;-60
2023/07/01 09:02:25;;;;;;;4.35;3.47;;;;;;;;;;5051838;28;20102;-60
2023/07/01 09:04:52;;;;;;;7.00;4.30;;;;;;;;;;5052836;28;20568;-60
2023/07/01 09:07:19;;;;;;;7.88;4.75;;;;;;;;;;5052698;28;20130;-61
2023/07/01 09:09:45;;;;;;;8.17;4.77;;;;;;;;;;5044463;28;20046;-62
2023/07/01 09:12:12;;;;;;;8.00;4.68;;;;;;;;;;5044340;28;20064;-61
2023/07/01 09:14:58;;;;;;;9.02;4.80;;;;;;;;;;5052977;28;20083;-61
2023/07/01 09:17:28;;;;;;;8.33;5.27;;;;;;;;;;5052702;28;20073;-60
2023/07/01 09:20:05;;;;;;;8.00;5.00;;;;;;;;;;5052515;28;20120;-60
2023/07/01 09:22:32;;;;;;;8.15;5.15;;;;;;;;;;5052792;28;20052;-60
2023/07/01 09:24:58;;;;;;;10.07;5.50;;;;;;;;;;5052667;28;20045;-60
2023/07/01 09:27:38;;;;;;;11.73;5.53;;;;;;;;;;5052322;28;20578;-60
2023/07/01 09:30:21;;;;;;;9.65;5.50;;;;;;;;;;5052343;28;20044;-61
2023/07/01 09:32:48;;;;;;;12.20;5.82;;;;;;;;;;5039252;28;20079;-60
2023/07/01 09:35:14;;;;;;;10.17;5.50;;;;;;;;;;5051735;28;20045;-60
2023/07/01 09:37:41;;;;;;;9.18;5.47;;;;;;;;;;5051850;28;20647;-61
2023/07/01 09:40:21;;;;;;;8.88;5.30;;;;;;;;;;5051590;28;20056;-60
2023/07/01 09:42:51;;;;;;;9.65;5.30;;;;;;;;;;5052788;28;20049;-60
2023/07/01 09:45:18;;;;;;;10.68;6.05;;;;;;;;;;5052604;28;20069;-61
2023/07/01 09:47:46;;;;;;;11.85;6.60;;;;;;;;;;5052585;28;20048;-60
2023/07/01 09:50:22;;;;;;;11.23;7.78;;;;;;;;;;5052574;28;20123;-59
2023/07/01 09:52:50;;;;;;;11.60;7.18;;;;;;;;;;5052341;28;20507;-60
2023/07/01 09:55:17;;;;;;;12.90;7.57;;;;;;;;;;5052307;28;20053;-60
2023/07/01 09:57:43;;;;;;;12.32;7.95;;;;;;;;;;5052515;28;20048;-61
2023/07/01 10:00:12;;;;;;;14.45;8.35;;;;;;;;;;5037899;28;20053;-60
2023/07/01 10:02:39;;;;;;;12.85;8.68;;;;;;;;;;5052790;28;20063;-60
2023/07/01 10:05:06;;;;;;;14.95;8.48;;;;;;;;;;5052181;28;20060;-60
2023/07/01 10:07:32;;;;;;;14.23;8.93;;;;;;;;;;5052130;28;20072;-61
2023/07/01 10:09:59;;;;;;;13.82;9.45;;;;;;;;;;5048237;28;20768;-60
2023/07/01 10:12:27;;;;;;;14.32;10.25;;;;;;;;;;5052220;28;20070;-60
2023/07/01 10:14:53;;;;;;;14.95;9.35;;;;;;;;;;5052112;28;20049;-60
2023/07/01 10:17:20;;;;;;;12.77;8.38;;;;;;;;;;5052304;28;20091;-61
2023/07/01 10:19:47;;;;;;;10.95;7.80;;;;;;;;;;5052380;28;20056;-61
2023/07/01 10:22:24;;;;;;;11.93;8.52;;;;;;;;;;5051405;28;20041;-60
2023/07/01 10:24:54;;;;;;;12.23;7.60;;;;;;;;;;5051633;28;20080;-60
2023/07/01 10:27:39;;;;;;;10.85;7.88;;;;;;;;;;5050674;28;20104;-60
2023/07/01 10:30:09;;;;;;;10.23;7.43;;;;;;;;;;5052134;28;20056;-61
2023/07/01 10:32:36;;;;;;;9.85;8.05;;;;;;;;;;5051684;28;20496;-60
2023/07/01 10:35:05;;;;;;;11.15;8.93;;;;;;;;;;5051496;28;20076;-60
2023/07/01 10:37:33;;;;;;;12.07;8.43;;;;;;;;;;5051684;28;20041;-60
2023/07/01 10:40:00;;;;;;;11.70;8.40;;;;;;;;;;5052234;28;20075;-61
2023/07/01 10:42:33;;;;;;;11.07;7.80;;;;;;;;;;5051668;28;20044;-60
2023/07/01 10:45:12;;;;;;;11.95;8.88;;;;;;;;;;5039278;28;20244;-60
2023/07/01 10:47:44;;;;;;;11.95;8.40;;;;;;;;;;5031651;28;20041;-60
2023/07/01 10:50:12;;;;;;;11.18;8.45;;;;;;;;;;5050062;28;20049;-61
2023/07/01 10:53:00;;;;;;;10.90;8.18;;;;;;;;;;5051872;28;20661;-60
2023/07/01 10:55:32;;;;;;;10.75;8.75;;;;;;;;;;5051801;28;20051;-60
2023/07/01 10:58:15;;;;;;;14.32;8.23;;;;;;;;;;5051634;28;20090;-61
2023/07/01 11:00:42;;;;;;;14.95;9.77;;;;;;;;;;5051592;28;20056;-60
2023/07/01 11:03:27;;;;;;;12.27;9.57;;;;;;;;;;5044658;28;20099;-60
2023/07/01 11:05:58;;;;;;;15.60;10.23;;;;;;;;;;5046374;28;20084;-61
2023/07/01 11:08:25;;;;;;;15.13;10.55;;;;;;;;;;5049173;28;20048;-61
2023/07/01 11:10:53;;;;;;;12.50;9.90;;;;;;;;;;5036949;28;20408;-61
2023/07/01 11:13:20;;;;;;;14.93;9.88;;;;;;;;;;5035956;28;20049;-60
2023/07/01 11:16:06;;;;;;;15.60;9.75;;;;;;;;;;5038319;28;20401;-60
2023/07/01 11:18:39;;;;;;;15.98;10.05;;;;;;;;;;5050782;28;20049;-60
2023/07/01 11:21:07;;;;;;;14.85;9.75;;;;;;;;;;5051248;28;20056;-61
2023/07/01 11:23:34;;;;;;;12.00;8.82;;;;;;;;;;5050759;28;20612;-60
2023/07/01 11:26:00;;;;;;;12.23;9.65;;;;;;;;;;5050920;28;20492;-62
2023/07/01 11:28:30;;;;;;;14.55;9.75;;;;;;;;;;5050728;28;20045;-61
2023/07/01 11:31:08;;;;;;;14.20;10.63;;;;;;;;;;5050550;28;20040;-61
2023/07/01 11:33:34;;;;;;;17.55;12.07;;;;;;;;;;5050694;28;20048;-60
2023/07/01 11:36:01;;;;;;;18.17;13.52;;;;;;;;;;5053664;28;20496;-60
2023/07/01 11:38:27;;;;;;;23.23;13.93;;;;;;;;;;5054617;28;20053;-62
2023/07/01 11:40:54;;;;;;;16.23;12.43;;;;;;;;;;5054426;28;20058;-61
2023/07/01 11:43:21;;;;;;;18.85;13.65;;;;;;;;;;5054790;28;20053;-61
2023/07/01 11:45:50;;;;;;;18.05;12.75;;;;;;;;;;5053937;28;20530;-61
2023/07/01 11:48:28;;;;;;;20.65;13.10;;;;;;;;;;5052391;28;20098;-60
2023/07/01 11:50:57;;;;;;;16.77;12.73;;;;;;;;;;5054263;28;20053;-61
2023/07/01 11:53:27;;;;;;;13.65;10.63;;;;;;;;;;5054278;28;20048;-61
2023/07/01 11:55:56;;;;;;;14.52;11.20;;;;;;;;;;5054266;28;20045;-60
2023/07/01 11:58:25;;;;;;;16.05;10.82;;;;;;;;;;5054332;28;20049;-61
2023/07/01 12:00:52;;;;;;;15.48;11.27;;;;;;;;;;5036514;28;20050;-63
2023/07/01 12:03:18;;;;;;;16.98;11.85;;;;;;;;;;5034168;28;20050;-64
2023/07/01 12:05:45;;;;;;;16.63;12.05;;;;;;;;;;5033971;28;20144;-61
2023/07/01 12:08:11;;;;;;;;;;;;;;;;;;5047306;28;20041;-60
2023/07/01 12:10:39;;;;;;;19.88;13.82;;;;;;;;;;5045736;28;20335;-62
2023/07/01 12:13:06;;;;;;;19.02;14.05;;;;;;;;;;5048918;28;20041;-62
2023/07/01 12:15:33;;;;;;;17.50;13.73;;;;;;;;;;5053783;28;20049;-62
2023/07/01 12:18:18;;;;;;;16.75;13.30;;;;;;;;;;5053797;28;20040;-62
2023/07/01 12:20:45;;;;;;;16.42;12.80;;;;;;;;;;5053718;28;20111;-62
2023/07/01 12:23:11;;;;;;;18.05;12.73;;;;;;;;;;5053807;28;20049;-61
2023/07/01 12:25:38;;;;;;;16.67;13.18;;;;;;;;;;5036741;28;20045;-62
2023/07/01 12:28:05;;;;;;;19.10;13.65;;;;;;;;;;5033906;28;20049;-62
2023/07/01 12:30:31;;;;;;;16.55;12.90;;;;;;;;;;5033656;28;20484;-61
2023/07/01 12:32:58;;;;;;;17.02;12.50;;;;;;;;;;5033725;28;20067;-61
2023/07/01 12:35:24;;;;;;;16.33;12.27;;;;;;;;;;5050680;28;20052;-62
2023/07/01 12:37:50;;;;;;;;;;;;;;;;;;5053804;28;20049;-61
2023/07/01 12:40:17;;;;;;;13.90;12.10;;;;;;;;;;5037591;28;20146;-60
2023/07/01 12:42:45;;;;;;;;;;;;;;;;;;5034561;28;20057;-61
2023/07/01 12:45:12;;;;;;;13.93;11.45;;;;;;;;;;5052700;28;19990;-60
2023/07/01 12:47:39;;;;;;;14.45;11.57;;;;;;;;;;5053356;28;20053;-61
2023/07/01 12:50:09;;;;;;;15.07;11.40;;;;;;;;;;5051073;28;20049;-60
2023/07/01 12:52:36;;;;;;;14.85;11.93;;;;;;;;;;5053388;28;20080;-60
2023/07/01 12:55:07;;;;;;;13.85;11.00;;;;;;;;;;5052955;28;20106;-60
2023/07/01 12:57:34;;;;;;;14.93;10.35;;;;;;;;;;5053123;28;20053;-60
2023/07/01 13:00:00;;;;;;;13.93;10.18;;;;;;;;;;5053163;28;20044;-61
2023/07/01 13:02:27;;;;;;;12.82;9.05;;;;;;;;;;5052954;28;20049;-61
2023/07/01 13:05:01;;;;;;;10.50;8.90;;;;;;;;;;5049819;28;20075;-61
2023/07/01 13:07:28;;;;;;;12.40;9.07;;;;;;;;;;5031227;28;20072;-60
2023/07/01 13:09:55;;;;;;;12.43;8.38;;;;;;;;;;5053080;28;20409;-60
2023/07/01 13:12:25;;;;;;;11.98;8.30;;;;;;;;;;5051805;28;20045;-61
2023/07/01 13:14:51;;;;;;;11.88;8.57;;;;;;;;;;5051947;28;20103;-61
2023/07/01 13:17:31;;;;;;;11.93;7.60;;;;;;;;;;5053362;28;20045;-61
2023/07/01 13:19:59;;;;;;;11.05;8.55;;;;;;;;;;5052929;28;20053;-61
2023/07/01 13:22:26;;;;;;;11.32;7.75;;;;;;;;;;5053302;28;20049;-60
2023/07/01 13:24:52;;;;;;;14.13;9.10;;;;;;;;;;5053175;28;20053;-60
2023/07/01 13:27:19;;;;;;;10.55;8.30;;;;;;;;;;5053475;28;20049;-61
2023/07/01 13:29:45;;;;;;;13.27;8.50;;;;;;;;;;5052841;28;20056;-60
2023/07/01 13:32:12;;;;;;;12.18;8.15;;;;;;;;;;5052717;28;20053;-60
2023/07/01 13:34:41;;;;;;;11.88;8.70;;;;;;;;;;5053016;28;20052;-60
2023/07/01 13:37:10;;;;;;;12.07;8.50;;;;;;;;;;5053016;28;20052;-60
2023/07/01 13:39:36;;;;;;;11.65;8.85;;;;;;;;;;5052925;28;20056;-60
2023/07/01 13:42:03;;;;;;;13.73;9.23;;;;;;;;;;5033886;28;20072;-61
2023/07/01 13:44:29;;;;;;;;;;;;;;;;;;5052340;28;20084;-60
2023/07/01 13:46:56;;;;;;;;;;;;;;;;;;5047037;28;20455;-61
2023/07/01 13:49:23;;;;;;;15.38;10.52;;;;;;;;;;5040037;28;19960;-60
2023/07/01 13:51:50;;;;;;;16.08;11.05;;;;;;;;;;5051945;28;20119;-60
2023/07/01 13:54:17;;;;;;;16.63;11.68;;;;;;;;;;5052198;28;20044;-61
2023/07/01 13:56:45;;;;;;;14.25;11.10;;;;;;;;;;5052144;28;20485;-60
2023/07/01 13:59:16;;;;;;;13.65;11.27;;;;;;;;;;5051471;28;20123;-61
2023/07/01 14:01:55;;;;;;;12.02;10.70;;;;;;;;;;5052495;28;20167;-61
2023/07/01 14:04:22;;;;;;;14.18;11.10;;;;;;;;;;5052323;28;20431;-61
2023/07/01 14:06:49;;;;;;;13.32;11.95;;;;;;;;;;5052144;28;20102;-60
2023/07/01 14:09:20;;;;;;;16.88;11.77;;;;;;;;;;5040192;28;20056;-61
2023/07/01 14:11:47;;;;;;;14.52;12.10;;;;;;;;;;5050227;28;20056;-61
2023/07/01 14:14:19;;;;;;;17.50;13.15;;;;;;;;;;5040806;28;20417;-61
2023/07/01 14:16:46;;;;;;;17.63;13.93;;;;;;;;;;5032214;28;20046;-61
2023/07/01 14:19:16;;;;;;;15.70;13.75;;;;;;;;;;5039651;28;20446;-61
2023/07/01 14:21:46;;;;;;;14.80;12.90;;;;;;;;;;5051675;28;20431;-61
2023/07/01 14:24:19;;;;;;;17.05;13.15;;;;;;;;;;5038382;28;20053;-61
2023/07/01 14:26:48;;;;;;;16.33;14.15;;;;;;;;;;5052102;28;20056;-61
2023/07/01 14:29:18;;;;;;;16.52;13.90;;;;;;;;;;5037758;28;20528;-61
2023/07/01 14:31:46;;;;;;;16.90;14.75;;;;;;;;;;5051823;28;20048;-60
2023/07/01 14:34:12;;;;;;;19.05;14.23;;;;;;;;;;5052022;28;20067;-61
2023/07/01 14:36:45;;;;;;;20.70;14.60;;;;;;;;;;5051595;28;20106;-61
2023/07/01 14:39:21;;;;;;;19.67;14.95;;;;;;;;;;5051947;28;20412;-62
2023/07/01 14:41:47;;;;;;;17.65;14.32;;;;;;;;;;5051911;28;20049;-61